sensor_id;sensor_type;location;lat;lon;timestamp;temperature;humidity
14057;DHT22;7103;54.300;10.180;2024-01-15T00:00:21;2.90;99.90
14057;DHT22;7103;54.300;10.180;2024-01-15T00:02:48;3.00;99.90
14057;DHT22;7103;54.300;10.180;2024-01-15T00:05:15;3.00;99.90
14057;DHT22;7103;54.300;10.180;2024-01-15T00:07:42;3.10;99.90
14057;DHT22;7103;54.300;10.180;2024-01-15T00:10:09;3.10;99.90
14057;DHT22;7103;54.300;10.180;2024-01-15T00:12:35;3.10;99.90
14057;DHT22;7103;54.300;10.180;2024-01-15T00:15:03;3.20;99.90
14057;DHT22;7103;54.300;10.180;2024-01-15T00:17:30;3.10;99.90
14057;DHT22;7103;54.300;10.180;2024-01-15T00:19:56;3.00;99.90
14057;DHT22;7103;54.300;10.180;2024-01-15T00:22:25;2.80;99.90
14057;DHT22;7103;54.300;10.180;2024-01-15T00:24:53;2.60;99.90
14057;DHT22;7103;54.300;10.180;2024-01-15T00:27:21;2.50;99.90
14057;DHT22;7103;54.300;10.180;2024-01-15T00:29:48;2.40;99.90
14057;DHT22;7103;54.300;10.180;2024-01-15T00:32:17;2.50;99.90
14057;DHT22;7103;54.300;10.180;2024-01-15T00:34:44;2.50;99.90
14057;DHT22;7103;54.300;10.180;2024-01-15T00:37:11;2.40;99.90
14057;DHT22;7103;54.300;10.180;2024-01-15T00:39:38;2.50;99.90
14057;DHT22;7103;54.300;10.180;2024-01-15T00:42:05;2.50;99.90
14057;DHT22;7103;54.300;10.180;2024-01-15T00:44:32;2.50;99.90
14057;DHT22;7103;54.300;10.180;2024-01-15T00:46:58;2.50;99.90
14057;DHT22;7103;54.300;10.180;2024-01-15T00:49:27;2.60;99.90
14057;DHT22;7103;54.300;10.180;2024-01-15T00:51:54;2.80;99.90
14057;DHT22;7103;54.300;10.180;2024-01-15T00:54:21;2.90;99.90
14057;DHT22;7103;54.300;10.180;2024-01-15T00:56:48;2.90;99.90
14057;DHT22;7103;54.300;10.180;2024-01-15T00:59:14;2.90;99.90
14057;DHT22;7103;54.300;10.180;2024-01-15T01:01:43;2.90;99.90
14057;DHT22;7103;54.300;10.180;2024-01-15T01:04:10;2.80;99.90
14057;DHT22;7103;54.300;10.180;2024-01-15T01:06:37;2.80;99.90
14057;DHT22;7103;54.300;10.180;2024-01-15T01:09:04;2.90;99.90
14057;DHT22;7103;54.300;10.180;2024-01-15T01:11:31;2.90;99.90
14057;DHT22;7103;54.300;10.180;2024-01-15T01:13:58;2.90;99.90
14057;DHT22;7103;54.300;10.180;2024-01-15T01:16:25;2.80;99.90
14057;DHT22;7103;54.300;10.180;2024-01-15T01:18:52;2.80;99.90
14057;DHT22;7103;54.300;10.180;2024-01-15T01:21:19;2.80;99.90
14057;DHT22;7103;54.300;10.180;2024-01-15T01:23:46;2.90;99.90
14057;DHT22;7103;54.300;10.180;2024-01-15T01:26:17;2.90;99.90
14057;DHT22;7103;54.300;10.180;2024-01-15T01:28:44;2.90;99.90
14057;DHT22;7103;54.300;10.180;2024-01-15T01:31:11;2.90;99.90
14057;DHT22;7103;54.300;10.180;2024-01-15T01:33:38;2.90;99.90
14057;DHT22;7103;54.300;10.180;2024-01-15T01:36:08;2.90;99.90
14057;DHT22;7103;54.300;10.180;2024-01-15T01:38:36;2.80;99.90
14057;DHT22;7103;54.300;10.180;2024-01-15T01:41:03;2.80;99.90
14057;DHT22;7103;54.300;10.180;2024-01-15T01:43:30;2.90;99.90
14057;DHT22;7103;54.300;10.180;2024-01-15T01:45:57;2.80;99.90
14057;DHT22;7103;54.300;10.180;2024-01-15T01:48:27;2.80;99.90
14057;DHT22;7103;54.300;10.180;2024-01-15T01:51:00;2.70;99.90
14057;DHT22;7103;54.300;10.180;2024-01-15T01:53:27;2.70;99.90
14057;DHT22;7103;54.300;10.180;2024-01-15T01:55:57;2.80;99.90
14057;DHT22;7103;54.300;10.180;2024-01-15T01:58:24;2.70;99.90
14057;DHT22;7103;54.300;10.180;2024-01-15T02:00:52;2.60;99.90
14057;DHT22;7103;54.300;10.180;2024-01-15T02:03:19;2.60;99.90
14057;DHT22;7103;54.300;10.180;2024-01-15T02:05:48;2.60;99.90
14057;DHT22;7103;54.300;10.180;2024-01-15T02:08:16;2.60;99.90
14057;DHT22;7103;54.300;10.180;2024-01-15T02:10:43;2.60;99.90
14057;DHT22;7103;54.300;10.180;2024-01-15T02:13:10;2.60;99.90
14057;DHT22;7103;54.300;10.180;2024-01-15T02:15:37;2.50;99.90
14057;DHT22;7103;54.300;10.180;2024-01-15T02:18:05;2.60;99.90
14057;DHT22;7103;54.300;10.180;2024-01-15T02:20:33;2.60;99.90
14057;DHT22;7103;54.300;10.180;2024-01-15T02:25:33;2.60;73.60
14057;DHT22;7103;54.300;10.180;2024-01-15T02:28:00;2.50;56.80
14057;DHT22;7103;54.300;10.180;2024-01-15T02:30:28;2.50;48.80
14057;DHT22;7103;54.300;10.180;2024-01-15T02:32:55;2.50;29.50
14057;DHT22;7103;54.300;10.180;2024-01-15T02:35:22;2.50;27.60
14057;DHT22;7103;54.300;10.180;2024-01-15T02:37:49;2.50;16.80
14057;DHT22;7103;54.300;10.180;2024-01-15T02:40:15;2.50;17.00
14057;DHT22;7103;54.300;10.180;2024-01-15T02:42:42;2.60;16.90
14057;DHT22;7103;54.300;10.180;2024-01-15T02:45:09;2.70;17.10
14057;DHT22;7103;54.300;10.180;2024-01-15T02:47:36;2.70;7.90
14057;DHT22;7103;54.300;10.180;2024-01-15T02:50:03;2.70;9.90
14057;DHT22;7103;54.300;10.180;2024-01-15T02:52:31;2.60;3.80
14057;DHT22;7103;54.300;10.180;2024-01-15T02:54:57;2.60;16.90
14057;DHT22;7103;54.300;10.180;2024-01-15T02:57:24;2.50;16.80
14057;DHT22;7103;54.300;10.180;2024-01-15T02:59:51;2.60;29.90
14057;DHT22;7103;54.300;10.180;2024-01-15T03:02:18;2.60;33.70
14057;DHT22;7103;54.300;10.180;2024-01-15T03:04:45;2.60;33.50
14057;DHT22;7103;54.300;10.180;2024-01-15T03:07:12;2.60;35.60
14057;DHT22;7103;54.300;10.180;2024-01-15T03:09:39;2.60;39.60
14057;DHT22;7103;54.300;10.180;2024-01-15T03:12:06;2.60;46.90
14057;DHT22;7103;54.300;10.180;2024-01-15T03:14:33;2.60;59.40
14057;DHT22;7103;54.300;10.180;2024-01-15T03:17:00;2.60;57.30
14057;DHT22;7103;54.300;10.180;2024-01-15T03:19:27;2.60;73.10
14057;DHT22;7103;54.300;10.180;2024-01-15T03:21:54;2.50;87.00
14057;DHT22;7103;54.300;10.180;2024-01-15T03:24:21;2.50;98.80
14057;DHT22;7103;54.300;10.180;2024-01-15T03:26:48;2.40;99.90
14057;DHT22;7103;54.300;10.180;2024-01-15T03:29:15;2.40;99.90
14057;DHT22;7103;54.300;10.180;2024-01-15T03:31:42;2.30;99.90
14057;DHT22;7103;54.300;10.180;2024-01-15T03:34:09;2.40;99.90
14057;DHT22;7103;54.300;10.180;2024-01-15T03:36:36;2.40;99.90
14057;DHT22;7103;54.300;10.180;2024-01-15T03:39:03;2.40;99.90
14057;DHT22;7103;54.300;10.180;2024-01-15T03:41:30;2.40;99.90
14057;DHT22;7103;54.300;10.180;2024-01-15T03:43:57;2.40;99.90
14057;DHT22;7103;54.300;10.180;2024-01-15T03:46:25;2.30;97.90
14057;DHT22;7103;54.300;10.180;2024-01-15T03:48:51;2.20;96.10
14057;DHT22;7103;54.300;10.180;2024-01-15T03:51:18;2.20;98.10
14057;DHT22;7103;54.300;10.180;2024-01-15T03:53:45;2.40;99.90
14057;DHT22;7103;54.300;10.180;2024-01-15T03:56:13;2.30;99.90
14057;DHT22;7103;54.300;10.180;2024-01-15T03:58:40;2.40;96.60
14057;DHT22;7103;54.300;10.180;2024-01-15T04:01:10;2.40;95.30
14057;DHT22;7103;54.300;10.180;2024-01-15T04:03:37;2.40;92.20
14057;DHT22;7103;54.300;10.180;2024-01-15T04:06:05;2.30;79.40
14057;DHT22;7103;54.300;10.180;2024-01-15T04:08:31;2.30;72.80
14057;DHT22;7103;54.300;10.180;2024-01-15T04:10:58;2.30;58.90
14057;DHT22;7103;54.300;10.180;2024-01-15T04:13:25;2.30;43.60
14057;DHT22;7103;54.300;10.180;2024-01-15T04:15:52;2.20;37.60
14057;DHT22;7103;54.300;10.180;2024-01-15T04:18:19;2.30;40.70
14057;DHT22;7103;54.300;10.180;2024-01-15T04:20:46;2.40;16.90
14057;DHT22;7103;54.300;10.180;2024-01-15T04:23:13;2.40;16.80
14057;DHT22;7103;54.300;10.180;2024-01-15T04:25:40;2.60;4.80
14057;DHT22;7103;54.300;10.180;2024-01-15T04:28:09;2.50;1.00
14057;DHT22;7103;54.300;10.180;2024-01-15T04:30:36;2.50;1.00
14057;DHT22;7103;54.300;10.180;2024-01-15T04:33:03;2.50;1.00
14057;DHT22;7103;54.300;10.180;2024-01-15T04:35:31;2.50;1.00
14057;DHT22;7103;54.300;10.180;2024-01-15T04:37:57;2.60;1.00
14057;DHT22;7103;54.300;10.180;2024-01-15T04:40:24;2.50;1.00
14057;DHT22;7103;54.300;10.180;2024-01-15T04:42:54;2.60;1.00
14057;DHT22;7103;54.300;10.180;2024-01-15T04:45:21;2.60;1.00
14057;DHT22;7103;54.300;10.180;2024-01-15T04:47:49;2.60;1.00
14057;DHT22;7103;54.300;10.180;2024-01-15T04:50:16;2.60;1.00
14057;DHT22;7103;54.300;10.180;2024-01-15T04:52:43;2.60;1.00
14057;DHT22;7103;54.300;10.180;2024-01-15T04:55:10;2.60;1.00
14057;DHT22;7103;54.300;10.180;2024-01-15T04:57:37;2.50;1.00
14057;DHT22;7103;54.300;10.180;2024-01-15T05:00:04;2.50;1.00
14057;DHT22;7103;54.300;10.180;2024-01-15T05:02:31;2.60;1.00
14057;DHT22;7103;54.300;10.180;2024-01-15T05:04:58;2.60;1.00
14057;DHT22;7103;54.300;10.180;2024-01-15T05:07:25;2.60;1.00
14057;DHT22;7103;54.300;10.180;2024-01-15T05:09:52;2.60;1.00
14057;DHT22;7103;54.300;10.180;2024-01-15T05:12:19;2.60;1.00
14057;DHT22;7103;54.300;10.180;2024-01-15T05:14:46;2.50;1.00
14057;DHT22;7103;54.300;10.180;2024-01-15T05:17:13;2.60;1.00
14057;DHT22;7103;54.300;10.180;2024-01-15T05:19:39;2.50;1.00
14057;DHT22;7103;54.300;10.180;2024-01-15T05:22:06;2.60;1.00
14057;DHT22;7103;54.300;10.180;2024-01-15T05:24:33;2.50;1.00
14057;DHT22;7103;54.300;10.180;2024-01-15T05:27:00;2.50;1.00
14057;DHT22;7103;54.300;10.180;2024-01-15T05:29:27;2.50;1.00
14057;DHT22;7103;54.300;10.180;2024-01-15T05:31:54;2.40;1.00
14057;DHT22;7103;54.300;10.180;2024-01-15T05:34:24;2.50;1.00
14057;DHT22;7103;54.300;10.180;2024-01-15T05:36:51;2.60;1.00
14057;DHT22;7103;54.300;10.180;2024-01-15T05:39:18;2.50;1.00
14057;DHT22;7103;54.300;10.180;2024-01-15T05:41:49;2.50;1.00
14057;DHT22;7103;54.300;10.180;2024-01-15T05:44:16;2.40;1.00
14057;DHT22;7103;54.300;10.180;2024-01-15T05:46:42;2.30;1.00
14057;DHT22;7103;54.300;10.180;2024-01-15T05:49:09;2.20;1.00
14057;DHT22;7103;54.300;10.180;2024-01-15T05:51:36;2.20;1.00
14057;DHT22;7103;54.300;10.180;2024-01-15T05:54:03;2.30;1.00
14057;DHT22;7103;54.300;10.180;2024-01-15T05:56:30;2.30;1.00
14057;DHT22;7103;54.300;10.180;2024-01-15T05:58:57;2.30;1.00
14057;DHT22;7103;54.300;10.180;2024-01-15T06:01:24;2.30;1.00
14057;DHT22;7103;54.300;10.180;2024-01-15T06:03:51;2.30;1.00
14057;DHT22;7103;54.300;10.180;2024-01-15T06:06:18;2.30;1.00
14057;DHT22;7103;54.300;10.180;2024-01-15T06:08:45;2.30;1.00
14057;DHT22;7103;54.300;10.180;2024-01-15T06:11:12;2.30;1.00
14057;DHT22;7103;54.300;10.180;2024-01-15T06:13:39;2.40;1.00
14057;DHT22;7103;54.300;10.180;2024-01-15T06:16:15;2.40;1.00
14057;DHT22;7103;54.300;10.180;2024-01-15T06:18:46;2.40;1.00
14057;DHT22;7103;54.300;10.180;2024-01-15T06:21:13;2.30;1.00
14057;DHT22;7103;54.300;10.180;2024-01-15T06:23:41;2.30;1.00
14057;DHT22;7103;54.300;10.180;2024-01-15T06:26:09;2.30;1.00
14057;DHT22;7103;54.300;10.180;2024-01-15T06:28:38;2.30;1.00
14057;DHT22;7103;54.300;10.180;2024-01-15T06:31:06;2.30;1.00
14057;DHT22;7103;54.300;10.180;2024-01-15T06:33:33;2.10;1.00
14057;DHT22;7103;54.300;10.180;2024-01-15T06:36:00;2.10;1.00
14057;DHT22;7103;54.300;10.180;2024-01-15T06:38:27;2.10;1.00
14057;DHT22;7103;54.300;10.180;2024-01-15T06:40:54;2.10;1.00
14057;DHT22;7103;54.300;10.180;2024-01-15T06:43:21;2.20;1.00
14057;DHT22;7103;54.300;10.180;2024-01-15T06:45:48;2.20;1.00
14057;DHT22;7103;54.300;10.180;2024-01-15T06:48:15;2.10;1.00
14057;DHT22;7103;54.300;10.180;2024-01-15T06:50:43;2.00;1.00
14057;DHT22;7103;54.300;10.180;2024-01-15T06:53:10;1.90;1.00
14057;DHT22;7103;54.300;10.180;2024-01-15T06:55:38;1.80;1.00
14057;DHT22;7103;54.300;10.180;2024-01-15T06:58:05;1.90;1.00
14057;DHT22;7103;54.300;10.180;2024-01-15T07:00:32;2.10;1.00
14057;DHT22;7103;54.300;10.180;2024-01-15T07:02:59;2.10;1.00
14057;DHT22;7103;54.300;10.180;2024-01-15T07:05:26;2.00;1.00
14057;DHT22;7103;54.300;10.180;2024-01-15T07:07:54;1.90;1.00
14057;DHT22;7103;54.300;10.180;2024-01-15T07:10:22;1.90;1.00
14057;DHT22;7103;54.300;10.180;2024-01-15T07:12:48;2.00;1.00
14057;DHT22;7103;54.300;10.180;2024-01-15T07:15:16;2.00;1.00
14057;DHT22;7103;54.300;10.180;2024-01-15T07:17:43;2.10;1.00
14057;DHT22;7103;54.300;10.180;2024-01-15T07:20:10;2.10;1.00
14057;DHT22;7103;54.300;10.180;2024-01-15T07:22:39;2.00;1.00
14057;DHT22;7103;54.300;10.180;2024-01-15T07:25:06;2.10;1.00
14057;DHT22;7103;54.300;10.180;2024-01-15T07:27:33;2.10;1.00
14057;DHT22;7103;54.300;10.180;2024-01-15T07:30:00;2.30;1.00
14057;DHT22;7103;54.300;10.180;2024-01-15T07:32:29;2.20;1.00
14057;DHT22;7103;54.300;10.180;2024-01-15T07:34:56;2.20;1.00
14057;DHT22;7103;54.300;10.180;2024-01-15T07:37:23;2.20;1.00
14057;DHT22;7103;54.300;10.180;2024-01-15T07:39:50;2.20;1.00
14057;DHT22;7103;54.300;10.180;2024-01-15T07:42:17;2.10;1.00
14057;DHT22;7103;54.300;10.180;2024-01-15T07:44:44;2.10;1.00
14057;DHT22;7103;54.300;10.180;2024-01-15T07:47:11;2.20;1.00
14057;DHT22;7103;54.300;10.180;2024-01-15T07:49:38;2.10;1.00
14057;DHT22;7103;54.300;10.180;2024-01-15T07:52:06;2.10;1.00
14057;DHT22;7103;54.300;10.180;2024-01-15T07:54:33;2.10;1.00
14057;DHT22;7103;54.300;10.180;2024-01-15T07:57:01;2.00;1.00
14057;DHT22;7103;54.300;10.180;2024-01-15T07:59:31;2.20;1.00
14057;DHT22;7103;54.300;10.180;2024-01-15T08:01:59;2.00;1.00
14057;DHT22;7103;54.300;10.180;2024-01-15T08:04:29;2.00;1.00
14057;DHT22;7103;54.300;10.180;2024-01-15T08:06:57;2.00;1.00
14057;DHT22;7103;54.300;10.180;2024-01-15T08:09:24;2.00;1.00
14057;DHT22;7103;54.300;10.180;2024-01-15T08:11:51;2.10;1.00
14057;DHT22;7103;54.300;10.180;2024-01-15T08:14:18;2.00;1.00
14057;DHT22;7103;54.300;10.180;2024-01-15T08:16:44;1.80;1.00
14057;DHT22;7103;54.300;10.180;2024-01-15T08:19:11;1.90;1.00
14057;DHT22;7103;54.300;10.180;2024-01-15T08:21:39;2.10;1.00
14057;DHT22;7103;54.300;10.180;2024-01-15T08:24:06;1.70;1.00
14057;DHT22;7103;54.300;10.180;2024-01-15T08:26:33;1.80;1.00
14057;DHT22;7103;54.300;10.180;2024-01-15T08:28:59;1.80;1.00
14057;DHT22;7103;54.300;10.180;2024-01-15T08:31:26;1.60;1.00
14057;DHT22;7103;54.300;10.180;2024-01-15T08:33:54;1.60;1.00
14057;DHT22;7103;54.300;10.180;2024-01-15T08:36:23;1.60;1.00
14057;DHT22;7103;54.300;10.180;2024-01-15T08:38:51;1.70;1.00
14057;DHT22;7103;54.300;10.180;2024-01-15T08:41:18;1.80;1.00
14057;DHT22;7103;54.300;10.180;2024-01-15T08:43:45;1.80;1.00
14057;DHT22;7103;54.300;10.180;2024-01-15T08:46:12;1.90;1.00
14057;DHT22;7103;54.300;10.180;2024-01-15T08:48:38;1.80;1.00
14057;DHT22;7103;54.300;10.180;2024-01-15T08:51:06;1.60;1.00
14057;DHT22;7103;54.300;10.180;2024-01-15T08:53:35;1.70;1.00
14057;DHT22;7103;54.300;10.180;2024-01-15T08:56:01;1.80;1.00
14057;DHT22;7103;54.300;10.180;2024-01-15T08:58:28;1.90;1.00
14057;DHT22;7103;54.300;10.180;2024-01-15T09:00:55;1.70;1.00
14057;DHT22;7103;54.300;10.180;2024-01-15T09:03:23;1.60;1.00
14057;DHT22;7103;54.300;10.180;2024-01-15T09:05:49;1.80;1.00
14057;DHT22;7103;54.300;10.180;2024-01-15T09:08:18;1.70;1.00
14057;DHT22;7103;54.300;10.180;2024-01-15T09:10:45;1.70;1.00
14057;DHT22;7103;54.300;10.180;2024-01-15T09:13:12;1.60;1.00
14057;DHT22;7103;54.300;10.180;2024-01-15T09:15:40;1.80;1.00
14057;DHT22;7103;54.300;10.180;2024-01-15T09:18:07;1.70;1.00
14057;DHT22;7103;54.300;10.180;2024-01-15T09:20:35;1.50;1.00
14057;DHT22;7103;54.300;10.180;2024-01-15T09:23:02;1.50;1.00
14057;DHT22;7103;54.300;10.180;2024-01-15T09:25:29;1.50;1.00
14057;DHT22;7103;54.300;10.180;2024-01-15T09:27:56;1.40;1.00
14057;DHT22;7103;54.300;10.180;2024-01-15T09:30:24;1.50;1.00
14057;DHT22;7103;54.300;10.180;2024-01-15T09:32:51;1.40;1.00
14057;DHT22;7103;54.300;10.180;2024-01-15T09:35:18;1.50;1.00
14057;DHT22;7103;54.300;10.180;2024-01-15T09:37:46;1.60;1.00
14057;DHT22;7103;54.300;10.180;2024-01-15T09:40:14;1.60;1.00
14057;DHT22;7103;54.300;10.180;2024-01-15T09:42:43;1.60;1.00
14057;DHT22;7103;54.300;10.180;2024-01-15T09:45:10;1.60;1.00
14057;DHT22;7103;54.300;10.180;2024-01-15T09:47:37;1.60;1.00
14057;DHT22;7103;54.300;10.180;2024-01-15T09:50:10;1.60;1.00
14057;DHT22;7103;54.300;10.180;2024-01-15T09:52:38;1.90;1.00
14057;DHT22;7103;54.300;10.180;2024-01-15T09:55:08;1.70;1.00
14057;DHT22;7103;54.300;10.180;2024-01-15T09:57:36;1.70;1.00
14057;DHT22;7103;54.300;10.180;2024-01-15T10:00:04;1.60;1.00
14057;DHT22;7103;54.300;10.180;2024-01-15T10:02:33;1.60;1.00
14057;DHT22;7103;54.300;10.180;2024-01-15T10:05:00;1.60;1.00
14057;DHT22;7103;54.300;10.180;2024-01-15T10:07:29;1.60;1.00
14057;DHT22;7103;54.300;10.180;2024-01-15T10:09:56;1.70;1.00
14057;DHT22;7103;54.300;10.180;2024-01-15T10:12:23;1.60;1.00
14057;DHT22;7103;54.300;10.180;2024-01-15T10:14:50;1.80;1.00
14057;DHT22;7103;54.300;10.180;2024-01-15T10:17:17;1.70;1.00
14057;DHT22;7103;54.300;10.180;2024-01-15T10:19:48;2.00;1.00
14057;DHT22;7103;54.300;10.180;2024-01-15T10:22:17;2.50;1.00
14057;DHT22;7103;54.300;10.180;2024-01-15T10:24:47;2.90;1.00
14057;DHT22;7103;54.300;10.180;2024-01-15T10:27:15;3.00;1.00
14057;DHT22;7103;54.300;10.180;2024-01-15T10:29:42;3.10;1.00
14057;DHT22;7103;54.300;10.180;2024-01-15T10:32:10;3.20;1.00
14057;DHT22;7103;54.300;10.180;2024-01-15T10:34:38;3.20;1.00
14057;DHT22;7103;54.300;10.180;2024-01-15T10:37:07;3.40;1.00
14057;DHT22;7103;54.300;10.180;2024-01-15T10:39:35;3.30;1.00
14057;DHT22;7103;54.300;10.180;2024-01-15T10:42:03;3.10;1.00
14057;DHT22;7103;54.300;10.180;2024-01-15T10:44:30;3.00;1.00
14057;DHT22;7103;54.300;10.180;2024-01-15T10:46:57;2.90;1.00
14057;DHT22;7103;54.300;10.180;2024-01-15T10:49:24;2.90;1.00
14057;DHT22;7103;54.300;10.180;2024-01-15T10:51:59;2.80;1.00
14057;DHT22;7103;54.300;10.180;2024-01-15T10:54:27;2.80;1.00
14057;DHT22;7103;54.300;10.180;2024-01-15T10:56:56;2.90;1.00
14057;DHT22;7103;54.300;10.180;2024-01-15T10:59:24;3.10;1.00
14057;DHT22;7103;54.300;10.180;2024-01-15T11:01:52;3.10;1.00
14057;DHT22;7103;54.300;10.180;2024-01-15T11:04:22;3.10;1.00
14057;DHT22;7103;54.300;10.180;2024-01-15T11:06:51;2.90;1.00
14057;DHT22;7103;54.300;10.180;2024-01-15T11:09:19;2.80;1.00
14057;DHT22;7103;54.300;10.180;2024-01-15T11:11:47;2.80;1.00
14057;DHT22;7103;54.300;10.180;2024-01-15T11:14:45;2.70;1.00
14057;DHT22;7103;54.300;10.180;2024-01-15T11:17:13;2.70;1.00
14057;DHT22;7103;54.300;10.180;2024-01-15T11:19:44;2.60;1.00
14057;DHT22;7103;54.300;10.180;2024-01-15T11:24:57;2.60;1.00
14057;DHT22;7103;54.300;10.180;2024-01-15T11:27:43;2.50;1.00
14057;DHT22;7103;54.300;10.180;2024-01-15T11:30:14;2.30;1.00
14057;DHT22;7103;54.300;10.180;2024-01-15T11:32:41;2.30;1.00
14057;DHT22;7103;54.300;10.180;2024-01-15T11:35:10;2.40;1.00
14057;DHT22;7103;54.300;10.180;2024-01-15T11:38:07;2.40;1.00
14057;DHT22;7103;54.300;10.180;2024-01-15T11:43:02;2.50;1.00
14057;DHT22;7103;54.300;10.180;2024-01-15T11:45:30;2.60;1.00
14057;DHT22;7103;54.300;10.180;2024-01-15T11:48:11;2.60;1.00
14057;DHT22;7103;54.300;10.180;2024-01-15T11:50:44;2.50;1.00
14057;DHT22;7103;54.300;10.180;2024-01-15T11:56:02;2.50;1.00
14057;DHT22;7103;54.300;10.180;2024-01-15T11:58:29;2.60;1.00
14057;DHT22;7103;54.300;10.180;2024-01-15T12:00:56;2.70;1.00
14057;DHT22;7103;54.300;10.180;2024-01-15T12:03:24;2.80;1.00
14057;DHT22;7103;54.300;10.180;2024-01-15T12:05:55;2.80;1.00
14057;DHT22;7103;54.300;10.180;2024-01-15T12:08:25;2.80;1.00
14057;DHT22;7103;54.300;10.180;2024-01-15T12:10:53;3.00;1.00
14057;DHT22;7103;54.300;10.180;2024-01-15T12:13:21;2.80;1.00
14057;DHT22;7103;54.300;10.180;2024-01-15T12:15:48;2.90;1.00
14057;DHT22;7103;54.300;10.180;2024-01-15T12:18:17;2.80;1.00
14057;DHT22;7103;54.300;10.180;2024-01-15T12:20:45;2.60;1.00
14057;DHT22;7103;54.300;10.180;2024-01-15T12:23:17;2.50;1.00
14057;DHT22;7103;54.300;10.180;2024-01-15T12:25:45;2.50;1.00
14057;DHT22;7103;54.300;10.180;2024-01-15T12:28:12;2.40;1.00
14057;DHT22;7103;54.300;10.180;2024-01-15T12:30:39;2.20;1.00
14057;DHT22;7103;54.300;10.180;2024-01-15T12:33:07;2.30;1.00
14057;DHT22;7103;54.300;10.180;2024-01-15T12:35:36;2.30;1.00
14057;DHT22;7103;54.300;10.180;2024-01-15T12:38:04;2.40;1.00
14057;DHT22;7103;54.300;10.180;2024-01-15T12:40:32;2.30;1.00
14057;DHT22;7103;54.300;10.180;2024-01-15T12:43:00;2.30;1.00
14057;DHT22;7103;54.300;10.180;2024-01-15T12:45:27;2.30;1.00
14057;DHT22;7103;54.300;10.180;2024-01-15T12:47:54;2.30;1.00
14057;DHT22;7103;54.300;10.180;2024-01-15T12:50:24;2.30;1.00
14057;DHT22;7103;54.300;10.180;2024-01-15T12:52:52;2.30;1.00
14057;DHT22;7103;54.300;10.180;2024-01-15T12:55:19;2.40;1.00
14057;DHT22;7103;54.300;10.180;2024-01-15T12:57:46;2.30;1.00
14057;DHT22;7103;54.300;10.180;2024-01-15T13:00:13;2.30;1.00
14057;DHT22;7103;54.300;10.180;2024-01-15T13:02:42;2.50;1.00
14057;DHT22;7103;54.300;10.180;2024-01-15T13:05:11;2.40;1.00
14057;DHT22;7103;54.300;10.180;2024-01-15T13:07:39;2.40;1.00
14057;DHT22;7103;54.300;10.180;2024-01-15T13:10:07;2.40;1.00
14057;DHT22;7103;54.300;10.180;2024-01-15T13:12:36;2.30;1.00
14057;DHT22;7103;54.300;10.180;2024-01-15T13:15:03;2.20;1.00
14057;DHT22;7103;54.300;10.180;2024-01-15T13:17:30;2.40;1.00
14057;DHT22;7103;54.300;10.180;2024-01-15T13:19:58;2.40;1.00
14057;DHT22;7103;54.300;10.180;2024-01-15T13:22:25;2.30;1.00
14057;DHT22;7103;54.300;10.180;2024-01-15T13:24:59;2.40;1.00
14057;DHT22;7103;54.300;10.180;2024-01-15T13:27:27;2.20;1.00
14057;DHT22;7103;54.300;10.180;2024-01-15T13:29:55;2.10;1.00
14057;DHT22;7103;54.300;10.180;2024-01-15T13:32:25;2.20;1.00
14057;DHT22;7103;54.300;10.180;2024-01-15T13:34:56;2.20;1.00
14057;DHT22;7103;54.300;10.180;2024-01-15T13:37:24;2.30;1.00
14057;DHT22;7103;54.300;10.180;2024-01-15T13:39:52;2.20;1.00
14057;DHT22;7103;54.300;10.180;2024-01-15T13:42:20;2.20;1.00
14057;DHT22;7103;54.300;10.180;2024-01-15T13:44:50;2.10;1.00
14057;DHT22;7103;54.300;10.180;2024-01-15T13:47:18;2.30;1.00
14057;DHT22;7103;54.300;10.180;2024-01-15T13:49:45;2.40;1.00
14057;DHT22;7103;54.300;10.180;2024-01-15T13:52:12;2.40;1.00
14057;DHT22;7103;54.300;10.180;2024-01-15T13:54:39;2.40;1.00
14057;DHT22;7103;54.300;10.180;2024-01-15T13:57:17;2.40;1.00
14057;DHT22;7103;54.300;10.180;2024-01-15T13:59:45;2.50;1.00
14057;DHT22;7103;54.300;10.180;2024-01-15T14:02:12;2.50;1.00
14057;DHT22;7103;54.300;10.180;2024-01-15T14:04:42;2.40;1.00
14057;DHT22;7103;54.300;10.180;2024-01-15T14:07:09;2.30;1.00
14057;DHT22;7103;54.300;10.180;2024-01-15T14:09:36;2.30;1.00
14057;DHT22;7103;54.300;10.180;2024-01-15T14:12:05;2.40;1.00
14057;DHT22;7103;54.300;10.180;2024-01-15T14:14:33;2.30;1.00
14057;DHT22;7103;54.300;10.180;2024-01-15T14:17:00;2.10;1.00
14057;DHT22;7103;54.300;10.180;2024-01-15T14:19:26;2.10;1.00
14057;DHT22;7103;54.300;10.180;2024-01-15T14:21:54;1.90;1.00
14057;DHT22;7103;54.300;10.180;2024-01-15T14:24:22;1.90;1.00
14057;DHT22;7103;54.300;10.180;2024-01-15T14:26:49;1.90;1.00
14057;DHT22;7103;54.300;10.180;2024-01-15T14:29:15;1.80;1.00
14057;DHT22;7103;54.300;10.180;2024-01-15T14:31:42;1.80;1.00
14057;DHT22;7103;54.300;10.180;2024-01-15T14:34:09;1.80;1.00
14057;DHT22;7103;54.300;10.180;2024-01-15T14:36:38;1.70;1.00
14057;DHT22;7103;54.300;10.180;2024-01-15T14:39:05;1.70;1.00
14057;DHT22;7103;54.300;10.180;2024-01-15T14:41:31;1.60;1.00
14057;DHT22;7103;54.300;10.180;2024-01-15T14:43:58;1.50;1.00
14057;DHT22;7103;54.300;10.180;2024-01-15T14:46:25;1.50;1.00
14057;DHT22;7103;54.300;10.180;2024-01-15T14:48:54;1.50;1.00
14057;DHT22;7103;54.300;10.180;2024-01-15T14:51:21;1.50;1.00
14057;DHT22;7103;54.300;10.180;2024-01-15T14:53:48;1.50;1.00
14057;DHT22;7103;54.300;10.180;2024-01-15T14:56:14;1.50;1.00
14057;DHT22;7103;54.300;10.180;2024-01-15T14:58:44;1.40;1.00
14057;DHT22;7103;54.300;10.180;2024-01-15T15:01:11;1.20;1.00
14057;DHT22;7103;54.300;10.180;2024-01-15T15:03:39;1.20;1.00
14057;DHT22;7103;54.300;10.180;2024-01-15T15:06:06;1.10;1.00
14057;DHT22;7103;54.300;10.180;2024-01-15T15:08:39;1.00;1.00
14057;DHT22;7103;54.300;10.180;2024-01-15T15:11:06;1.00;1.00
14057;DHT22;7103;54.300;10.180;2024-01-15T15:13:33;1.00;1.00
14057;DHT22;7103;54.300;10.180;2024-01-15T15:16:11;0.80;1.00
14057;DHT22;7103;54.300;10.180;2024-01-15T15:18:40;0.80;1.00
14057;DHT22;7103;54.300;10.180;2024-01-15T15:21:09;0.70;1.00
14057;DHT22;7103;54.300;10.180;2024-01-15T15:23:38;0.60;1.00
14057;DHT22;7103;54.300;10.180;2024-01-15T15:26:07;0.70;1.00
14057;DHT22;7103;54.300;10.180;2024-01-15T15:28:34;0.50;1.00
14057;DHT22;7103;54.300;10.180;2024-01-15T15:31:05;0.30;1.00
14057;DHT22;7103;54.300;10.180;2024-01-15T15:33:35;0.30;1.00
14057;DHT22;7103;54.300;10.180;2024-01-15T15:36:03;0.20;1.00
14057;DHT22;7103;54.300;10.180;2024-01-15T15:38:33;0.10;1.00
14057;DHT22;7103;54.300;10.180;2024-01-15T15:41:01;0.00;1.00
14057;DHT22;7103;54.300;10.180;2024-01-15T15:43:28;-0.10;1.00
14057;DHT22;7103;54.300;10.180;2024-01-15T15:45:56;0.00;1.00
14057;DHT22;7103;54.300;10.180;2024-01-15T15:48:24;-0.10;1.00
14057;DHT22;7103;54.300;10.180;2024-01-15T15:50:52;-0.20;1.00
14057;DHT22;7103;54.300;10.180;2024-01-15T15:53:21;-0.20;1.00
14057;DHT22;7103;54.300;10.180;2024-01-15T15:55:48;-0.30;1.00
14057;DHT22;7103;54.300;10.180;2024-01-15T15:58:15;-0.40;1.00
14057;DHT22;7103;54.300;10.180;2024-01-15T16:00:42;-0.40;1.00
14057;DHT22;7103;54.300;10.180;2024-01-15T16:03:09;-0.50;1.00
14057;DHT22;7103;54.300;10.180;2024-01-15T16:05:36;-0.60;1.00
14057;DHT22;7103;54.300;10.180;2024-01-15T16:08:17;-0.70;1.00
14057;DHT22;7103;54.300;10.180;2024-01-15T16:10:46;-0.70;1.00